createdAt,value
2018-12-21T00:03:27.007Z,100465.78
2018-12-21T00:07:31.168Z,100474.48
2018-12-21T00:11:35.249Z,100454.25
2018-12-21T00:15:39.274Z,100455.45
2018-12-21T00:19:43.370Z,100449.98
2018-12-21T00:23:47.727Z,100454.00
2018-12-21T00:27:52.710Z,100455.45
2018-12-21T00:32:02.155Z,100441.97
2018-12-21T00:36:11.772Z,100438.73
2018-12-21T00:40:22.247Z,100434.49
2018-12-21T00:44:31.455Z,100439.89
2018-12-21T00:48:35.846Z,100423.81
2018-12-21T00:52:40.037Z,100414.15
2018-12-21T00:56:44.536Z,100423.80
2018-12-21T01:00:48.733Z,100412.52
2018-12-21T01:04:53.189Z,100407.35
2018-12-21T01:08:57.271Z,100409.10
2018-12-21T01:13:01.271Z,100400.14
2018-12-21T01:17:47.045Z,100401.68
2018-12-21T01:26:26.094Z,100384.19
2018-12-21T01:30:30.418Z,100374.78
2018-12-21T01:34:34.517Z,100368.91
2018-12-21T01:38:38.615Z,100352.75
2018-12-21T01:42:42.723Z,100354.82
2018-12-21T01:46:46.859Z,100346.90
2018-12-21T01:50:51.157Z,100332.53
2018-12-21T01:54:55.368Z,100320.59
2018-12-21T01:58:59.518Z,100325.91
2018-12-21T02:03:03.853Z,100312.44
2018-12-21T02:07:08.014Z,100297.86
2018-12-21T02:11:12.216Z,100289.27
2018-12-21T02:15:16.200Z,100294.59
2018-12-21T02:19:20.642Z,100287.46
2018-12-21T02:23:24.849Z,100279.12
2018-12-21T02:27:29.390Z,100264.20
2018-12-21T02:31:33.591Z,100263.63
2018-12-21T02:35:37.827Z,100253.11
2018-12-21T02:39:41.880Z,100236.57
2018-12-21T02:43:48.615Z,100242.11
2018-12-21T02:47:52.965Z,100240.15
2018-12-21T02:52:05.306Z,100226.09
2018-12-21T03:11:00.506Z,100179.75
2018-12-21T03:19:24.529Z,100152.98
2018-12-21T03:23:28.620Z,100144.52
2018-12-21T03:27:32.883Z,100142.87
2018-12-21T03:31:37.056Z,100126.89
2018-12-21T03:35:42.297Z,100119.19
2018-12-21T03:39:46.351Z,100095.88
2018-12-21T03:43:50.620Z,100089.59
2018-12-21T03:47:55.010Z,100081.11
2018-12-21T03:51:59.173Z,100077.24
2018-12-21T03:56:03.520Z,100061.20
2018-12-21T04:00:07.995Z,100046.39
2018-12-21T04:04:12.177Z,100029.29
2018-12-21T04:08:16.431Z,100026.25
2018-12-21T04:12:20.471Z,100004.20
2018-12-21T04:16:24.820Z,100000.30
2018-12-21T04:20:29.060Z,100001.39
2018-12-21T04:24:33.012Z,100012.75
2018-12-21T04:28:37.009Z,100016.37
2018-12-21T04:32:40.986Z,100012.88
2018-12-21T04:36:45.373Z,100002.42
2018-12-21T04:40:49.524Z,99970.98
2018-12-21T04:44:53.560Z,99951.47
2018-12-21T04:48:57.704Z,99950.97
2018-12-21T04:53:01.775Z,99940.58
2018-12-21T04:57:05.931Z,99917.03
2018-12-21T05:02:34.331Z,99912.63
2018-12-21T05:06:38.572Z,99897.61
2018-12-21T05:10:42.588Z,99886.14
2018-12-21T05:14:46.559Z,99873.57
2018-12-21T05:18:51.931Z,99858.55
2018-12-21T05:22:55.983Z,99846.00
2018-12-21T05:26:59.939Z,99833.04
2018-12-21T05:31:03.911Z,99823.64
2018-12-21T05:35:08.124Z,99805.53
2018-12-21T05:39:12.175Z,99793.71
2018-12-21T05:43:16.309Z,99791.38
2018-12-21T05:47:20.268Z,99787.50
2018-12-21T05:51:24.239Z,99752.10
2018-12-21T05:55:28.251Z,99770.23
2018-12-21T06:04:16.290Z,99738.96
2018-12-21T06:08:23.643Z,99730.46
2018-12-21T06:12:27.592Z,99711.59
2018-12-21T06:16:31.599Z,99693.90
2018-12-21T06:20:35.616Z,99694.80
2018-12-21T06:24:40.007Z,99692.42
2018-12-21T06:28:44.085Z,99671.52
2018-12-21T06:32:48.071Z,99653.52
2018-12-21T06:36:52.121Z,99656.64
2018-12-21T06:40:56.201Z,99634.13
2018-12-21T06:45:00.152Z,99625.44
2018-12-21T06:49:04.207Z,99632.02
2018-12-21T06:53:08.144Z,99612.80
2018-12-21T06:57:12.135Z,99621.38
2018-12-21T07:01:16.243Z,99609.03
2018-12-21T07:05:20.245Z,99594.08
2018-12-21T07:09:24.230Z,99600.51
2018-12-21T07:13:28.183Z,99584.05
2018-12-21T07:17:32.156Z,99566.83
2018-12-21T07:21:36.223Z,99559.88
2018-12-21T07:25:40.459Z,99536.81
2018-12-21T07:29:44.423Z,99545.34
2018-12-21T07:33:48.415Z,99530.61
2018-12-21T07:37:52.372Z,99518.17
2018-12-21T07:41:56.439Z,99521.66
2018-12-21T07:46:00.395Z,99503.06
2018-12-21T07:50:05.221Z,99483.06
2018-12-21T07:54:09.197Z,99476.00
2018-12-21T07:58:13.170Z,99466.66
2018-12-21T08:02:17.193Z,99458.99
2018-12-21T08:06:21.164Z,99442.17
2018-12-21T08:10:25.078Z,99402.08
2018-12-21T08:14:30.094Z,99401.06
2018-12-21T08:18:34.035Z,99394.47
2018-12-21T08:22:37.982Z,99389.88
2018-12-21T08:26:41.919Z,99375.94
2018-12-21T08:30:46.127Z,99388.99
2018-12-21T08:34:50.074Z,99377.61
2018-12-21T08:38:54.011Z,99371.16
2018-12-21T08:42:57.971Z,99355.95
2018-12-21T08:47:01.917Z,99348.41
2018-12-21T08:51:05.961Z,99345.58
2018-12-21T08:55:11.882Z,99349.33
2018-12-21T08:59:15.962Z,99341.44
2018-12-21T09:03:19.971Z,99347.53
2018-12-21T09:07:23.922Z,99345.64
2018-12-21T09:11:27.859Z,99335.81
2018-12-21T09:15:31.855Z,99334.02
2018-12-21T09:19:35.763Z,99316.99
2018-12-21T09:23:39.806Z,99332.58
2018-12-21T09:27:43.851Z,99316.50
2018-12-21T09:31:47.881Z,99328.63
2018-12-21T09:35:51.960Z,99326.67
2018-12-21T09:39:56.917Z,99306.63
2018-12-21T09:44:00.879Z,99321.47
2018-12-21T09:48:05.030Z,99311.39
2018-12-21T09:52:09.984Z,99328.75
2018-12-21T09:56:13.895Z,99308.12
2018-12-21T10:00:17.930Z,99308.59
2018-12-21T10:04:21.955Z,99302.45
2018-12-21T10:08:25.966Z,99294.20
2018-12-21T10:12:29.915Z,99298.52
2018-12-21T10:16:33.840Z,99299.44
2018-12-21T10:20:37.839Z,99309.52
2018-12-21T10:24:41.776Z,99303.73
2018-12-21T10:28:45.715Z,99292.63
2018-12-21T10:32:49.708Z,99276.66
2018-12-21T10:36:53.638Z,99287.02
2018-12-21T10:40:57.623Z,99297.17
2018-12-21T10:45:01.566Z,99272.77
2018-12-21T10:49:05.615Z,99272.56
2018-12-21T10:53:09.657Z,99273.30
2018-12-21T10:57:13.727Z,99291.65
2018-12-21T11:01:17.665Z,99276.83
2018-12-21T11:05:21.674Z,99268.45
2018-12-21T11:09:25.656Z,99280.14
2018-12-21T11:13:29.623Z,99264.89
2018-12-21T11:17:33.719Z,99259.22
2018-12-21T11:21:37.854Z,99286.69
2018-12-21T11:25:41.794Z,99267.64
2018-12-21T11:29:49.669Z,99276.48
2018-12-21T11:33:53.693Z,99268.96
2018-12-21T11:37:57.745Z,99289.05
2018-12-21T11:42:01.674Z,99276.66
2018-12-21T11:46:05.580Z,99276.48
2018-12-21T11:50:11.290Z,99288.97
2018-12-21T11:54:15.239Z,99267.13
2018-12-21T11:58:19.296Z,99266.11
2018-12-21T12:02:23.235Z,99295.21
2018-12-21T12:06:27.257Z,99318.47
2018-12-21T12:10:31.342Z,99306.28
2018-12-21T12:14:35.548Z,99277.64
2018-12-21T12:18:39.487Z,99289.54
2018-12-21T12:22:43.546Z,99286.05
2018-12-21T12:26:47.534Z,99274.53
2018-12-21T12:30:51.679Z,99288.24
2018-12-21T12:34:55.682Z,99278.29
2018-12-21T12:38:59.642Z,99288.63
2018-12-21T12:43:03.639Z,99287.38
2018-12-21T12:47:07.614Z,99306.98
2018-12-21T12:51:11.700Z,99303.27
2018-12-21T12:55:15.942Z,99304.09
2018-12-21T12:59:19.966Z,99315.66
2018-12-21T13:03:23.942Z,99334.44
2018-12-21T13:07:27.901Z,99361.19
2018-12-21T13:11:31.885Z,99326.25
2018-12-21T13:15:35.975Z,99361.11
2018-12-21T13:19:39.987Z,99350.47
2018-12-21T13:23:44.142Z,99330.20
2018-12-21T13:27:48.211Z,99337.25
2018-12-21T13:31:52.175Z,99372.88
2018-12-21T13:35:56.225Z,99362.09
2018-12-21T13:40:00.185Z,99388.42
2018-12-21T13:44:04.311Z,99374.59
2018-12-21T13:48:08.334Z,99374.20
2018-12-21T13:52:12.399Z,99382.29
2018-12-21T13:56:16.451Z,99457.12
2018-12-21T14:00:20.521Z,99374.64
2018-12-21T14:04:24.554Z,99365.57
2018-12-21T14:08:28.582Z,99397.79
2018-12-21T14:12:32.614Z,99432.09
2018-12-21T14:16:36.597Z,99398.06
2018-12-21T14:20:40.563Z,99417.59
2018-12-21T14:24:44.675Z,99421.26
2018-12-21T14:28:48.662Z,99471.67
2018-12-21T14:32:52.687Z,99466.52
2018-12-21T14:36:56.747Z,99446.66
2018-12-21T14:41:00.768Z,99464.29
2018-12-21T14:45:05.363Z,99457.53
2018-12-21T14:49:09.427Z,99459.55
2018-12-21T14:53:13.419Z,99532.49
2018-12-21T14:57:17.901Z,99487.68
2018-12-21T15:01:21.871Z,99491.16
2018-12-21T15:05:25.857Z,99526.28
2018-12-21T15:09:29.911Z,99518.63
2018-12-21T15:13:33.947Z,99543.27
2018-12-21T15:17:37.948Z,99515.42
2018-12-21T15:21:42.005Z,99545.31
2018-12-21T15:25:46.428Z,99533.86
2018-12-21T15:29:50.636Z,99543.11
2018-12-21T15:33:54.896Z,99551.05
2018-12-21T15:37:59.002Z,99568.16
2018-12-21T15:42:02.967Z,99574.30
2018-12-21T15:46:07.159Z,99571.21
2018-12-21T15:50:12.196Z,99605.52
2018-12-21T16:02:49.352Z,99589.59
2018-12-21T16:06:53.382Z,99646.10
2018-12-21T16:10:57.331Z,99665.23
2018-12-21T16:15:01.321Z,99675.88
2018-12-21T16:19:05.421Z,99661.73
2018-12-21T16:23:09.375Z,99673.63
2018-12-21T16:27:13.335Z,99679.18
2018-12-21T16:31:17.215Z,99685.10
2018-12-21T16:35:21.175Z,99701.91
2018-12-21T16:39:25.330Z,99716.68
2018-12-21T16:43:29.299Z,99705.63
2018-12-21T16:47:33.328Z,99729.18
2018-12-21T16:51:37.251Z,99743.13
2018-12-21T16:55:41.239Z,99745.54
2018-12-21T16:59:45.187Z,99737.97
2018-12-21T17:03:49.211Z,99759.84
2018-12-21T17:07:53.389Z,99738.45
2018-12-21T17:11:57.333Z,99750.47
2018-12-21T17:16:01.331Z,99730.88
2018-12-21T17:20:06.255Z,99757.05
2018-12-21T17:24:10.316Z,99770.60
2018-12-21T17:28:14.282Z,99756.00
2018-12-21T17:32:18.166Z,99789.23
2018-12-21T17:36:22.177Z,99807.83
2018-12-21T17:40:26.187Z,99800.98
2018-12-21T17:44:30.133Z,99803.33
2018-12-21T17:48:34.110Z,99805.25
2018-12-21T17:52:38.224Z,99821.02
2018-12-21T17:56:42.291Z,99827.47
2018-12-21T18:00:46.223Z,99822.54
2018-12-21T18:04:50.193Z,99832.80
2018-12-21T18:08:54.346Z,99850.25
2018-12-21T18:12:58.391Z,99857.21
2018-12-21T18:17:03.274Z,99875.07
2018-12-21T18:21:07.376Z,99872.47
2018-12-21T18:25:15.946Z,99891.28
2018-12-21T18:29:20.133Z,99893.48
2018-12-21T18:33:24.968Z,99906.93
2018-12-21T18:37:29.116Z,99920.25
2018-12-21T18:41:33.075Z,99945.08
2018-12-21T18:45:37.083Z,99936.06
2018-12-21T18:49:41.085Z,99932.33
2018-12-21T18:53:45.266Z,99940.24
2018-12-21T18:57:49.170Z,99946.23
2018-12-21T19:01:53.222Z,99955.84
2018-12-21T19:05:57.243Z,99932.31
2018-12-21T19:10:01.298Z,99942.05
2018-12-21T19:14:05.352Z,99944.48
2018-12-21T19:18:09.440Z,99956.27
2018-12-21T19:22:13.523Z,99956.09
2018-12-21T19:26:18.618Z,99966.30
2018-12-21T19:30:25.162Z,99970.43
2018-12-21T19:34:29.504Z,99970.52
2018-12-21T19:38:33.454Z,99987.83
2018-12-21T19:42:37.443Z,99987.80
2018-12-21T19:46:41.393Z,99985.39
2018-12-21T19:50:45.413Z,100023.45
2018-12-21T19:54:53.869Z,99984.52
2018-12-21T19:58:57.853Z,99996.96
2018-12-21T20:03:01.795Z,100000.22
2018-12-21T20:07:05.890Z,100010.16
2018-12-21T20:11:09.917Z,99991.88
2018-12-21T20:15:13.939Z,100013.84
2018-12-21T20:19:18.013Z,100009.30
2018-12-21T20:23:21.919Z,100002.93
2018-12-21T20:27:25.979Z,100003.80
2018-12-21T20:31:29.982Z,100009.89
2018-12-21T20:35:34.181Z,100045.20
2018-12-21T20:39:41.338Z,100026.86
2018-12-21T20:43:45.250Z,100024.05
2018-12-21T20:47:49.253Z,100042.70
2018-12-21T20:51:53.284Z,100038.99
2018-12-21T20:55:57.238Z,100040.06
2018-12-21T21:00:01.781Z,100035.84
2018-12-21T21:04:05.699Z,100031.48
2018-12-21T21:08:09.748Z,100030.63
2018-12-21T21:12:13.763Z,100037.61
2018-12-21T21:16:17.758Z,100043.11
2018-12-21T21:20:21.740Z,100075.91
2018-12-21T21:24:26.809Z,100057.30
2018-12-21T21:28:30.963Z,100079.46
2018-12-21T21:32:35.007Z,100080.20
2018-12-21T21:36:38.990Z,100096.08
2018-12-21T21:40:42.978Z,100085.11
2018-12-21T21:44:46.911Z,100092.72
2018-12-21T21:48:50.982Z,100097.30
2018-12-21T21:52:55.039Z,100107.02
2018-12-21T21:56:59.026Z,100091.81
2018-12-21T22:01:03.031Z,100096.46
2018-12-21T22:05:07.026Z,100095.94
2018-12-21T22:09:10.984Z,100103.27
2018-12-21T22:13:15.078Z,100102.35
2018-12-21T22:17:19.154Z,100107.60
2018-12-21T22:21:23.189Z,100123.09
2018-12-21T22:25:27.146Z,100126.67
2018-12-21T22:29:31.067Z,100122.24
2018-12-21T22:33:35.053Z,100114.91
2018-12-21T22:37:39.002Z,100123.14
2018-12-21T22:41:42.962Z,100141.72
2018-12-21T22:45:46.934Z,100134.06
2018-12-21T22:49:50.928Z,100121.66
2018-12-21T22:53:54.981Z,100123.20
2018-12-21T22:57:58.987Z,100124.25
2018-12-21T23:02:02.949Z,100121.72
2018-12-21T23:06:07.060Z,100124.83
2018-12-21T23:10:11.023Z,100130.42
2018-12-21T23:14:15.071Z,100130.69
2018-12-21T23:18:18.989Z,100140.98
2018-12-21T23:22:22.938Z,100128.81
2018-12-21T23:26:28.326Z,100127.59
2018-12-21T23:30:32.283Z,100122.34
2018-12-21T23:34:36.210Z,100109.73
2018-12-21T23:38:40.155Z,100126.83
2018-12-21T23:42:44.115Z,100104.03
2018-12-21T23:46:48.061Z,100124.19
2018-12-21T23:50:52.076Z,100126.45
2018-12-21T23:54:56.013Z,100131.63
2018-12-21T23:58:59.974Z,100132.50
